createdAt,value
2018-02-21T00:01:35.471Z,19.48
2018-02-21T00:04:04.665Z,20.88
2018-02-21T00:06:33.826Z,20.42
2018-02-21T00:09:03.277Z,19.83
2018-02-21T00:11:32.377Z,20.02
2018-02-21T00:14:01.628Z,18.98
2018-02-21T00:16:30.794Z,19.62
2018-02-21T00:19:00.070Z,18.90
2018-02-21T00:21:29.144Z,21.15
2018-02-21T00:23:58.684Z,19.35
2018-02-21T00:26:28.370Z,17.83
2018-02-21T00:28:57.525Z,23.70
2018-02-21T00:31:26.698Z,23.20
2018-02-21T00:33:56.022Z,19.08
2018-02-21T00:36:25.265Z,18.70
2018-02-21T00:38:54.277Z,17.30
2018-02-21T00:41:23.318Z,23.62
2018-02-21T00:43:52.590Z,20.12
2018-02-21T00:46:21.902Z,27.50
2018-02-21T00:48:51.112Z,17.55
2018-02-21T00:51:20.501Z,27.55
2018-02-21T00:53:49.909Z,27.73
2018-02-21T00:56:18.959Z,21.10
2018-02-21T00:58:48.185Z,20.20
2018-02-21T01:01:17.382Z,22.75
2018-02-21T01:03:46.681Z,25.48
2018-02-21T01:06:15.985Z,26.85
2018-02-21T01:08:45.353Z,28.55
2018-02-21T01:11:14.756Z,29.35
2018-02-21T01:13:44.074Z,26.23
2018-02-21T01:16:13.614Z,25.02
2018-02-21T01:18:42.904Z,30.08
2018-02-21T01:21:12.258Z,29.70
2018-02-21T01:23:41.394Z,27.73
2018-02-21T01:26:10.464Z,31.67
2018-02-21T01:28:39.650Z,27.10
2018-02-21T01:31:08.551Z,22.87
2018-02-21T01:33:37.460Z,23.75
2018-02-21T01:36:06.598Z,27.52
2018-02-21T01:38:35.610Z,24.75
2018-02-21T01:41:04.725Z,23.98
2018-02-21T01:43:33.863Z,25.20
2018-02-21T01:46:03.019Z,21.40
2018-02-21T01:48:32.498Z,25.10
2018-02-21T01:51:01.679Z,28.35
2018-02-21T01:53:31.021Z,25.27
2018-02-21T01:56:00.602Z,23.42
2018-02-21T01:58:29.689Z,28.10
2018-02-21T02:00:59.108Z,22.37
2018-02-21T02:03:28.250Z,29.40
2018-02-21T02:05:57.118Z,31.23
2018-02-21T02:08:26.271Z,29.63
2018-02-21T02:10:55.501Z,29.50
2018-02-21T02:13:24.414Z,28.12
2018-02-21T02:15:53.521Z,26.17
2018-02-21T02:18:22.401Z,35.15
2018-02-21T02:20:51.566Z,26.73
2018-02-21T02:23:20.588Z,24.98
2018-02-21T02:25:49.639Z,29.30
2018-02-21T02:28:19.249Z,30.62
2018-02-21T02:30:48.369Z,33.20
2018-02-21T02:33:17.719Z,32.65
2018-02-21T02:35:47.151Z,29.15
2018-02-21T02:38:27.750Z,24.92
2018-02-21T02:40:56.937Z,32.08
2018-02-21T02:43:26.068Z,19.65
2018-02-21T02:45:55.489Z,27.87
2018-02-21T02:48:24.538Z,25.70
2018-02-21T02:50:53.515Z,26.90
2018-02-21T02:53:22.541Z,26.75
2018-02-21T02:55:51.509Z,30.70
2018-02-21T02:58:20.570Z,27.83
2018-02-21T03:00:49.552Z,25.88
2018-02-21T03:03:18.727Z,23.50
2018-02-21T03:05:47.689Z,26.30
2018-02-21T03:08:16.579Z,23.42
2018-02-21T03:10:46.017Z,28.42
2018-02-21T03:13:15.080Z,30.00
2018-02-21T03:15:44.467Z,30.88
2018-02-21T03:18:13.525Z,26.40
2018-02-21T03:20:43.135Z,28.35
2018-02-21T03:23:12.285Z,31.08
2018-02-21T03:25:41.441Z,33.05
2018-02-21T03:28:10.792Z,34.42
2018-02-21T03:30:39.892Z,27.23
2018-02-21T03:33:08.698Z,35.03
2018-02-21T03:35:37.598Z,29.50
2018-02-21T03:38:06.721Z,30.73
2018-02-21T03:40:36.039Z,28.65
2018-02-21T03:43:05.422Z,29.52
2018-02-21T03:45:34.493Z,33.33
2018-02-21T03:48:03.513Z,29.08
2018-02-21T03:50:32.434Z,35.35
2018-02-21T03:53:01.623Z,30.88
2018-02-21T03:55:30.911Z,30.52
2018-02-21T03:58:00.417Z,32.25
2018-02-21T04:00:29.687Z,40.85
2018-02-21T04:02:58.940Z,38.55
2018-02-21T04:05:28.221Z,28.45
2018-02-21T04:07:57.081Z,34.08
2018-02-21T04:10:26.402Z,37.15
2018-02-21T04:12:55.563Z,31.77
2018-02-21T04:15:24.754Z,32.05
2018-02-21T04:17:53.621Z,26.23
2018-02-21T04:20:23.129Z,25.98
2018-02-21T04:22:52.265Z,24.58
2018-02-21T04:25:21.905Z,34.75
2018-02-21T04:27:51.033Z,27.75
2018-02-21T04:30:20.621Z,28.52
2018-02-21T04:32:49.705Z,27.35
2018-02-21T04:35:19.049Z,29.60
2018-02-21T04:37:48.328Z,31.40
2018-02-21T04:40:17.673Z,27.73
2018-02-21T04:42:47.042Z,25.77
2018-02-21T04:45:16.645Z,23.75
2018-02-21T04:47:45.597Z,23.52
2018-02-21T04:50:14.594Z,27.17
2018-02-21T04:52:43.726Z,30.48
2018-02-21T04:55:18.394Z,28.17
2018-02-21T04:57:49.708Z,25.90
2018-02-21T05:00:18.949Z,26.95
2018-02-21T05:02:48.002Z,30.50
2018-02-21T05:05:17.173Z,25.70
2018-02-21T05:07:46.330Z,30.58
2018-02-21T05:10:15.788Z,31.52
2018-02-21T05:12:45.309Z,28.30
2018-02-21T05:15:14.538Z,26.10
2018-02-21T05:17:44.122Z,29.95
2018-02-21T05:20:13.303Z,30.27
2018-02-21T05:22:42.869Z,29.90
2018-02-21T05:25:12.326Z,27.87
2018-02-21T05:27:41.493Z,32.28
2018-02-21T05:30:10.933Z,33.63
2018-02-21T05:32:39.947Z,30.37
2018-02-21T05:35:09.082Z,33.13
2018-02-21T05:37:38.382Z,32.47
2018-02-21T05:40:07.690Z,31.00
2018-02-21T05:42:36.924Z,35.88
2018-02-21T05:45:06.454Z,32.67
2018-02-21T05:47:35.690Z,40.42
2018-02-21T05:50:04.878Z,32.15
2018-02-21T05:52:34.876Z,37.20
2018-02-21T05:55:04.230Z,29.33
2018-02-21T05:57:33.446Z,37.90
2018-02-21T06:00:02.765Z,36.60
2018-02-21T06:02:31.821Z,38.13
2018-02-21T06:05:01.329Z,37.22
2018-02-21T06:07:30.382Z,32.47
2018-02-21T06:09:59.298Z,32.22
2018-02-21T06:12:28.426Z,33.85
2018-02-21T06:14:58.140Z,28.05
2018-02-21T06:17:27.438Z,34.42
2018-02-21T06:19:56.701Z,32.97
2018-02-21T06:22:25.918Z,33.08
2018-02-21T06:24:55.259Z,33.25
2018-02-21T06:27:24.644Z,33.10
2018-02-21T06:29:53.831Z,35.20
2018-02-21T06:32:23.129Z,34.50
2018-02-21T06:34:52.536Z,36.40
2018-02-21T06:37:21.530Z,39.88
2018-02-21T06:39:50.702Z,35.50
2018-02-21T06:42:19.751Z,42.05
2018-02-21T06:44:48.993Z,39.70
2018-02-21T06:47:18.197Z,35.72
2018-02-21T06:49:47.753Z,33.53
2018-02-21T06:52:16.881Z,41.95
2018-02-21T06:54:46.226Z,32.75
2018-02-21T06:57:15.145Z,33.88
2018-02-21T06:59:44.387Z,40.10
2018-02-21T07:02:25.192Z,38.17
2018-02-21T07:04:54.794Z,37.75
2018-02-21T07:07:23.918Z,41.90
2018-02-21T07:09:53.399Z,41.72
2018-02-21T07:12:22.890Z,52.05
2018-02-21T07:14:52.165Z,39.55
2018-02-21T07:17:21.388Z,37.97
2018-02-21T07:19:50.894Z,51.20
2018-02-21T07:22:20.308Z,42.90
2018-02-21T07:24:49.714Z,42.50
2018-02-21T07:27:19.005Z,57.97
2018-02-21T07:29:48.156Z,45.28
2018-02-21T07:32:17.588Z,49.70
2018-02-21T07:34:47.119Z,43.78
2018-02-21T07:37:16.461Z,42.08
2018-02-21T07:39:45.826Z,39.40
2018-02-21T07:42:15.004Z,43.35
2018-02-21T07:44:44.515Z,38.08
2018-02-21T07:47:13.820Z,38.83
2018-02-21T07:49:43.256Z,29.63
2018-02-21T07:52:12.369Z,42.42
2018-02-21T07:54:41.786Z,29.73
2018-02-21T07:57:11.276Z,30.45
2018-02-21T07:59:40.590Z,31.85
2018-02-21T08:02:09.915Z,30.37
2018-02-21T08:04:40.370Z,30.55
2018-02-21T08:07:09.465Z,27.08
2018-02-21T08:09:38.505Z,31.83
2018-02-21T08:12:07.677Z,31.90
2018-02-21T08:14:36.901Z,29.45
2018-02-21T08:17:05.905Z,30.30
2018-02-21T08:19:35.118Z,29.45
2018-02-21T08:22:04.526Z,28.33
2018-02-21T08:24:34.045Z,31.48
2018-02-21T08:27:03.248Z,28.52
2018-02-21T08:29:32.554Z,30.05
2018-02-21T08:32:02.048Z,32.70
2018-02-21T08:34:31.728Z,26.25
2018-02-21T08:37:01.254Z,28.40
2018-02-21T08:39:30.349Z,32.30
2018-02-21T08:41:59.368Z,33.90
2018-02-21T08:44:28.440Z,29.67
2018-02-21T08:46:57.901Z,30.08
2018-02-21T08:49:27.125Z,35.88
2018-02-21T08:51:56.310Z,28.83
2018-02-21T08:54:25.979Z,31.48
2018-02-21T08:56:55.870Z,35.45
2018-02-21T08:59:25.037Z,36.72
2018-02-21T09:01:54.484Z,31.80
2018-02-21T09:04:23.564Z,31.83
2018-02-21T09:06:52.764Z,35.92
2018-02-21T09:09:22.001Z,38.05
2018-02-21T09:11:51.098Z,34.90
2018-02-21T09:14:21.054Z,33.28
2018-02-21T09:16:50.601Z,37.53
2018-02-21T09:19:20.000Z,36.47
2018-02-21T09:21:49.526Z,40.30
2018-02-21T09:24:19.137Z,36.00
2018-02-21T09:26:48.516Z,32.15
2018-02-21T09:29:17.853Z,31.35
2018-02-21T09:31:47.206Z,25.35
2018-02-21T09:34:16.466Z,29.42
2018-02-21T09:36:45.892Z,27.27
2018-02-21T09:39:15.214Z,33.30
2018-02-21T09:41:44.631Z,33.22
2018-02-21T09:44:13.861Z,30.73
2018-02-21T09:46:43.225Z,42.75
2018-02-21T09:49:13.023Z,31.42
2018-02-21T09:51:42.943Z,32.58
2018-02-21T09:54:12.350Z,35.05
2018-02-21T09:56:42.465Z,36.30
2018-02-21T09:59:12.188Z,37.38
2018-02-21T10:01:41.759Z,41.10
2018-02-21T10:04:12.008Z,30.77
2018-02-21T10:06:41.417Z,31.37
2018-02-21T10:09:10.818Z,31.45
2018-02-21T10:11:39.905Z,26.02
2018-02-21T10:14:09.270Z,32.78
2018-02-21T10:16:38.237Z,33.42
2018-02-21T10:19:07.446Z,35.50
2018-02-21T10:21:36.493Z,37.65
2018-02-21T10:24:05.729Z,32.70
2018-02-21T10:26:35.174Z,38.40
2018-02-21T10:29:05.007Z,41.90
2018-02-21T10:31:34.631Z,39.17
2018-02-21T10:34:04.228Z,27.25
2018-02-21T10:36:33.515Z,36.05
2018-02-21T10:39:02.921Z,35.63
2018-02-21T10:41:32.738Z,42.35
2018-02-21T10:44:02.148Z,33.28
2018-02-21T10:46:31.621Z,32.88
2018-02-21T10:49:01.239Z,37.08
2018-02-21T10:51:30.285Z,35.70
2018-02-21T10:53:59.501Z,40.05
2018-02-21T10:56:28.889Z,35.15
2018-02-21T10:58:58.490Z,40.78
2018-02-21T11:01:28.082Z,36.55
2018-02-21T11:03:57.261Z,37.90
2018-02-21T11:06:26.680Z,35.28
2018-02-21T11:08:55.621Z,38.22
2018-02-21T11:11:24.875Z,34.55
2018-02-21T11:13:54.130Z,33.83
2018-02-21T11:16:23.539Z,41.20
2018-02-21T11:18:52.777Z,35.90
2018-02-21T11:21:22.236Z,34.67
2018-02-21T11:23:51.767Z,38.15
2018-02-21T11:26:21.067Z,38.80
2018-02-21T11:28:50.451Z,33.80
2018-02-21T11:31:20.407Z,34.78
2018-02-21T11:33:49.697Z,37.17
2018-02-21T11:36:18.697Z,33.22
2018-02-21T11:38:47.790Z,30.98
2018-02-21T11:41:17.438Z,30.85
2018-02-21T11:43:47.270Z,33.00
2018-02-21T11:46:16.536Z,34.75
2018-02-21T11:48:45.598Z,30.10
2018-02-21T11:51:15.016Z,35.05
2018-02-21T11:53:44.446Z,31.83
2018-02-21T11:56:13.481Z,30.12
2018-02-21T11:58:42.581Z,30.65
2018-02-21T12:01:11.906Z,28.00
2018-02-21T12:03:40.837Z,31.48
2018-02-21T12:06:10.205Z,30.42
2018-02-21T12:08:39.645Z,33.13
2018-02-21T12:11:09.310Z,27.85
2018-02-21T12:13:38.861Z,27.40
2018-02-21T12:16:08.190Z,30.08
2018-02-21T12:18:37.502Z,33.30
2018-02-21T12:21:07.053Z,29.60
2018-02-21T12:23:36.723Z,35.58
2018-02-21T12:26:06.454Z,33.15
2018-02-21T12:28:35.647Z,37.22
2018-02-21T12:31:04.661Z,30.35
2018-02-21T12:33:33.986Z,26.50
2018-02-21T12:36:03.278Z,27.58
2018-02-21T12:38:32.793Z,28.65
2018-02-21T12:44:01.642Z,34.28
2018-02-21T12:46:30.842Z,29.33
2018-02-21T12:49:00.219Z,29.50
2018-02-21T12:51:29.851Z,28.90
2018-02-21T12:53:59.367Z,31.02
2018-02-21T12:56:29.157Z,33.60
2018-02-21T12:58:58.596Z,34.92
2018-02-21T13:01:27.993Z,37.30
2018-02-21T13:04:00.039Z,31.62
2018-02-21T13:06:29.456Z,36.05
2018-02-21T13:09:00.757Z,32.72
2018-02-21T13:11:30.199Z,38.97
2018-02-21T13:14:00.376Z,31.00
2018-02-21T13:16:30.136Z,34.72
2018-02-21T13:19:00.053Z,33.47
2018-02-21T13:21:29.340Z,35.00
2018-02-21T13:23:58.860Z,33.42
2018-02-21T13:26:29.904Z,36.22
2018-02-21T13:28:59.510Z,36.15
2018-02-21T13:31:29.218Z,42.00
2018-02-21T13:33:58.725Z,36.80
2018-02-21T13:36:28.177Z,40.83
2018-02-21T13:38:59.276Z,42.42
2018-02-21T13:41:28.752Z,30.95
2018-02-21T13:43:59.184Z,44.15
2018-02-21T13:46:28.536Z,38.35
2018-02-21T13:48:58.116Z,38.65
2018-02-21T13:51:27.556Z,36.35
2018-02-21T13:53:56.921Z,38.67
2018-02-21T13:56:26.365Z,34.45
2018-02-21T13:58:55.305Z,38.05
2018-02-21T14:01:25.042Z,35.13
2018-02-21T14:03:54.613Z,43.50
2018-02-21T14:06:24.441Z,38.63
2018-02-21T14:08:53.947Z,33.67
2018-02-21T14:11:23.242Z,29.60
2018-02-21T14:13:54.009Z,38.25
2018-02-21T14:16:23.502Z,36.70
2018-02-21T14:18:53.250Z,45.97
2018-02-21T14:21:22.600Z,40.03
2018-02-21T14:23:51.890Z,40.08
2018-02-21T14:26:21.304Z,40.10
2018-02-21T14:28:50.385Z,36.40
2018-02-21T14:31:19.641Z,43.75
2018-02-21T14:33:48.800Z,44.97
2018-02-21T14:36:17.858Z,34.33
2018-02-21T14:38:47.715Z,33.17
2018-02-21T14:41:17.307Z,41.05
2018-02-21T14:43:46.446Z,45.22
2018-02-21T14:46:16.434Z,39.85
2018-02-21T14:48:46.622Z,36.97
2018-02-21T14:51:15.890Z,41.60
2018-02-21T14:53:45.150Z,38.65
2018-02-21T14:56:14.589Z,35.00
2018-02-21T14:58:44.394Z,41.92
2018-02-21T15:01:14.906Z,47.70
2018-02-21T15:03:44.369Z,45.47
2018-02-21T15:06:13.807Z,42.15
2018-02-21T15:08:43.138Z,38.28
2018-02-21T15:11:12.338Z,37.72
2018-02-21T15:13:41.710Z,40.30
2018-02-21T15:16:16.859Z,37.92
2018-02-21T15:18:46.564Z,38.05
2018-02-21T15:21:15.767Z,37.65
2018-02-21T15:23:45.665Z,37.10
2018-02-21T15:26:14.697Z,36.15
2018-02-21T15:28:44.108Z,38.38
2018-02-21T15:31:13.570Z,34.55
2018-02-21T15:33:42.961Z,42.60
2018-02-21T15:36:12.795Z,36.00
2018-02-21T15:38:42.220Z,33.78
2018-02-21T15:41:11.637Z,39.65
2018-02-21T15:43:40.821Z,39.55
2018-02-21T15:46:11.830Z,31.05
2018-02-21T15:48:40.902Z,43.60
2018-02-21T15:51:10.018Z,36.55
2018-02-21T15:53:39.497Z,36.17
2018-02-21T15:56:08.820Z,34.75
2018-02-21T15:58:38.066Z,40.28
2018-02-21T16:01:07.350Z,49.28
2018-02-21T16:03:36.777Z,37.67
2018-02-21T16:06:06.202Z,41.50
2018-02-21T16:08:35.653Z,40.45
2018-02-21T16:11:05.007Z,39.42
2018-02-21T16:13:34.223Z,42.17
2018-02-21T16:16:03.960Z,44.45
2018-02-21T16:18:33.181Z,30.75
2018-02-21T16:21:02.383Z,38.42
2018-02-21T16:23:31.860Z,41.97
2018-02-21T16:26:01.074Z,37.20
2018-02-21T16:28:30.557Z,38.08
2018-02-21T16:30:59.952Z,39.42
2018-02-21T16:33:29.429Z,38.20
2018-02-21T16:35:58.757Z,35.05
2018-02-21T16:38:27.789Z,44.35
2018-02-21T16:40:56.902Z,44.53
2018-02-21T16:43:26.526Z,39.45
2018-02-21T16:45:56.249Z,40.50
2018-02-21T16:48:25.231Z,42.80
2018-02-21T16:50:54.933Z,37.97
2018-02-21T16:53:24.276Z,41.60
2018-02-21T16:55:53.997Z,41.75
2018-02-21T16:58:23.538Z,38.33
2018-02-21T17:00:53.145Z,39.78
2018-02-21T17:03:22.820Z,40.83
2018-02-21T17:05:52.429Z,39.78
2018-02-21T17:08:21.594Z,40.65
2018-02-21T17:10:50.841Z,49.90
2018-02-21T17:13:19.934Z,40.17
2018-02-21T17:15:49.298Z,31.55
2018-02-21T17:18:18.485Z,47.78
2018-02-21T17:20:47.913Z,37.17
2018-02-21T17:23:16.978Z,42.15
2018-02-21T17:25:46.065Z,39.45
2018-02-21T17:28:15.385Z,42.25
2018-02-21T17:30:44.525Z,46.58
2018-02-21T17:33:13.626Z,41.80
2018-02-21T17:35:43.195Z,39.47
2018-02-21T17:38:12.619Z,39.17
2018-02-21T17:40:47.174Z,39.85
2018-02-21T17:43:16.257Z,43.65
2018-02-21T17:45:45.578Z,43.08
2018-02-21T17:48:15.125Z,42.00
2018-02-21T17:50:44.409Z,43.90
2018-02-21T17:53:13.744Z,43.45
2018-02-21T17:55:43.265Z,35.78
2018-02-21T17:58:12.246Z,44.08
2018-02-21T18:00:41.444Z,42.53
2018-02-21T18:03:10.610Z,38.97
2018-02-21T18:05:40.189Z,44.92
2018-02-21T18:08:09.265Z,46.72
2018-02-21T18:10:38.360Z,44.35
2018-02-21T18:13:07.357Z,46.55
2018-02-21T18:15:36.717Z,42.35
2018-02-21T18:18:05.777Z,40.95
2018-02-21T18:20:34.886Z,39.88
2018-02-21T18:23:03.814Z,34.72
2018-02-21T18:25:32.794Z,37.70
2018-02-21T18:28:02.027Z,43.30
2018-02-21T18:30:30.962Z,36.47
2018-02-21T18:33:00.254Z,41.40
2018-02-21T18:35:29.321Z,39.38
2018-02-21T18:37:58.838Z,37.35
2018-02-21T18:40:28.240Z,40.03
2018-02-21T18:42:57.090Z,32.00
2018-02-21T18:45:26.349Z,41.85
2018-02-21T18:47:55.652Z,42.62
2018-02-21T18:50:24.797Z,40.92
2018-02-21T18:52:53.938Z,34.65
2018-02-21T18:55:22.935Z,34.15
2018-02-21T18:57:52.256Z,38.28
2018-02-21T19:00:21.401Z,43.42
2018-02-21T19:02:50.375Z,40.65
2018-02-21T19:05:19.529Z,40.78
2018-02-21T19:07:48.425Z,39.33
2018-02-21T19:10:17.535Z,37.90
2018-02-21T19:12:46.590Z,39.95
2018-02-21T19:15:15.647Z,38.38
2018-02-21T19:17:44.969Z,34.78
2018-02-21T19:20:14.182Z,37.42
2018-02-21T19:22:43.437Z,42.50
2018-02-21T19:25:12.681Z,42.45
2018-02-21T19:27:41.822Z,42.85
2018-02-21T19:30:11.109Z,42.10
2018-02-21T19:32:40.544Z,41.15
2018-02-21T19:35:09.513Z,38.47
2018-02-21T19:37:38.882Z,37.45
2018-02-21T19:40:07.934Z,38.65
2018-02-21T19:42:37.093Z,47.05
2018-02-21T19:45:06.377Z,46.28
2018-02-21T19:47:35.272Z,49.47
2018-02-21T19:50:04.542Z,51.28
2018-02-21T19:52:33.613Z,56.37
2018-02-21T19:55:02.650Z,46.83
2018-02-21T19:57:31.827Z,45.17
2018-02-21T20:00:00.870Z,48.92
2018-02-21T20:02:30.422Z,45.88
2018-02-21T20:04:59.705Z,42.85
2018-02-21T20:07:29.402Z,43.15
2018-02-21T20:09:58.669Z,50.60
2018-02-21T20:12:27.810Z,48.85
2018-02-21T20:14:57.186Z,45.78
2018-02-21T20:17:26.297Z,38.35
2018-02-21T20:19:55.352Z,35.72
2018-02-21T20:22:24.414Z,38.90
2018-02-21T20:24:53.504Z,39.03
2018-02-21T20:27:22.474Z,39.92
2018-02-21T20:29:51.384Z,48.65
2018-02-21T20:32:20.469Z,39.80
2018-02-21T20:34:49.737Z,44.03
2018-02-21T20:37:19.102Z,66.72
2018-02-21T20:39:48.135Z,37.45
2018-02-21T20:42:17.343Z,38.38
2018-02-21T20:44:46.537Z,42.08
2018-02-21T20:47:15.533Z,38.60
2018-02-21T20:49:44.457Z,36.33
2018-02-21T20:52:13.338Z,40.00
2018-02-21T20:54:42.490Z,39.13
2018-02-21T20:57:11.826Z,42.40
2018-02-21T20:59:40.676Z,40.50
2018-02-21T21:02:10.228Z,36.75
2018-02-21T21:04:39.954Z,41.17
2018-02-21T21:07:09.166Z,37.50
2018-02-21T21:09:38.401Z,39.60
2018-02-21T21:12:07.459Z,38.35
2018-02-21T21:14:36.493Z,37.20
2018-02-21T21:17:05.501Z,38.95
2018-02-21T21:19:34.849Z,37.03
2018-02-21T21:22:04.338Z,39.95
2018-02-21T21:24:33.690Z,44.58
2018-02-21T21:27:03.048Z,44.78
2018-02-21T21:29:32.264Z,45.38
2018-02-21T21:32:01.510Z,45.75
2018-02-21T21:34:30.836Z,43.83
2018-02-21T21:36:59.908Z,42.05
2018-02-21T21:39:29.085Z,43.75
2018-02-21T21:41:57.958Z,42.15
2018-02-21T21:44:27.056Z,43.38
2018-02-21T21:46:56.581Z,41.22
2018-02-21T21:49:25.597Z,44.05
2018-02-21T21:51:54.934Z,53.28
2018-02-21T21:54:24.294Z,39.17
2018-02-21T21:56:53.710Z,41.37
2018-02-21T21:59:23.338Z,44.03
2018-02-21T22:01:52.625Z,40.90
2018-02-21T22:04:22.085Z,50.90
2018-02-21T22:06:51.122Z,47.42
2018-02-21T22:09:20.672Z,39.13
2018-02-21T22:11:49.762Z,41.85
2018-02-21T22:14:19.250Z,47.75
2018-02-21T22:16:48.503Z,41.85
2018-02-21T22:19:17.946Z,43.15
2018-02-21T22:21:47.074Z,53.17
2018-02-21T22:24:16.232Z,44.47
2018-02-21T22:26:45.642Z,37.60
2018-02-21T22:29:14.926Z,43.05
2018-02-21T22:31:44.486Z,41.28
2018-02-21T22:34:13.525Z,38.72
2018-02-21T22:36:42.950Z,37.35
2018-02-21T22:39:12.149Z,43.70
2018-02-21T22:41:41.664Z,43.87
2018-02-21T22:44:11.089Z,43.28
2018-02-21T22:46:40.522Z,39.30
2018-02-21T22:49:09.854Z,39.15
2018-02-21T22:51:39.083Z,38.55
2018-02-21T22:54:08.489Z,37.83
2018-02-21T22:56:37.834Z,42.65
2018-02-21T22:59:07.186Z,44.67
2018-02-21T23:01:36.349Z,38.08
2018-02-21T23:04:05.551Z,39.95
2018-02-21T23:06:34.971Z,42.65
2018-02-21T23:09:04.461Z,42.42
2018-02-21T23:11:33.626Z,41.63
2018-02-21T23:14:02.537Z,37.83
2018-02-21T23:16:31.738Z,46.40
2018-02-21T23:19:01.425Z,43.47
2018-02-21T23:21:30.794Z,45.08
2018-02-21T23:23:59.926Z,48.35
2018-02-21T23:26:29.233Z,42.05
2018-02-21T23:28:58.332Z,48.38
2018-02-21T23:31:27.346Z,36.65
2018-02-21T23:33:56.340Z,41.55
2018-02-21T23:36:25.576Z,39.25
2018-02-21T23:38:54.806Z,41.28
2018-02-21T23:41:24.053Z,38.88
2018-02-21T23:43:53.109Z,41.95
2018-02-21T23:46:22.753Z,40.17
2018-02-21T23:48:52.056Z,38.13
2018-02-21T23:51:21.514Z,37.78
2018-02-21T23:53:50.801Z,43.15
2018-02-21T23:56:20.009Z,37.20
2018-02-21T23:58:49.602Z,40.08
